^^
Grace C. Lehan Memorial Weather Station Historical Data
Daily Summary for July 5, 2022 Units:  Both    English   Metric
Daily Weekly Monthly Yearly
  High: Low: Average:
Temperature: 77.7 °F /  25.4 °C 68.7 °F /  20.4 °C 71.5 °F /  21.9 °C
Dew Point: 73.3 °F /  22.9 °C 67.4 °F /  19.7 °C 69.4 °F /  20.8 °C
Humidity: 97% 84.8% 93%
Wind Speed: 1.4mph /  2.3km/h - 0.1mph /  0.2km/h
Wind Gust: 11mph /  17.7km/h - -
Wind- - SSW
Pressure: 30.09 in /  1018.8 hPa 30.03 in /  1016.8 hPa -
Precipitation: 0.18 in /  4.57 mm    
 
 
Tabular Data for July 5, 2022
Time Temperature Dew Point Pressure Wind Wind Speed Wind Gust Humidity Rainfall Rate (Hourly) solar
00:00 69.9 °F /  21.1 °C 68.4 °F /  20.2 °C 30.06in /  1017.8hPa Calm     95% 0.00in /  0mm 0 W/m2
00:09 69.9 °F /  21.1 °C 68.4 °F /  20.2 °C 30.06in /  1017.8hPa Calm     95% 0.00in /  0mm 0 W/m2
00:14 69.9 °F /  21.1 °C 68.4 °F /  20.2 °C 30.06in /  1017.8hPa Calm     95% 0.00in /  0mm 0 W/m2
00:19 69.8 °F /  21 °C 68.3 °F /  20.2 °C 30.06in /  1017.8hPa Calm     95% 0.00in /  0mm 0 W/m2
00:24 69.8 °F /  21 °C 68.3 °F /  20.2 °C 30.06in /  1017.8hPa Calm     95% 0.00in /  0mm 0 W/m2
00:29 69.7 °F /  20.9 °C 68.2 °F /  20.1 °C 30.06in /  1017.8hPa Calm     95% 0.00in /  0mm 0 W/m2
00:34 69.7 °F /  20.9 °C 68.2 °F /  20.1 °C 30.06in /  1017.8hPa Calm     95% 0.00in /  0mm 0 W/m2
00:39 69.7 °F /  20.9 °C 68.2 °F /  20.1 °C 30.06in /  1017.8hPa Calm     95% 0.00in /  0mm 0 W/m2
00:44 69.6 °F /  20.9 °C 68.1 °F /  20.1 °C 30.06in /  1017.8hPa Calm     95% 0.00in /  0mm 0 W/m2
00:49 69.5 °F /  20.8 °C 68.1 °F /  20.1 °C 30.05in /  1017.5hPa Calm     95% 0.00in /  0mm 0 W/m2
00:54 69.5 °F /  20.8 °C 68 °F /  20 °C 30.05in /  1017.5hPa Calm     95% 0.00in /  0mm 0 W/m2
00:59 69.5 °F /  20.8 °C 68 °F /  20 °C 30.06in /  1017.8hPa Calm     95% 0.00in /  0mm 0 W/m2
01:04 69.4 °F /  20.8 °C 67.9 °F /  19.9 °C 30.06in /  1017.8hPa Calm     95% 0.00in /  0mm 0 W/m2
01:09 69.4 °F /  20.8 °C 68 °F /  20 °C 30.06in /  1017.8hPa Calm     95% 0.00in /  0mm 0 W/m2
01:14 69.5 °F /  20.8 °C 68 °F /  20 °C 30.06in /  1017.8hPa Calm     95% 0.00in /  0mm 0 W/m2
01:19 69.5 °F /  20.8 °C 68.2 °F /  20.1 °C 30.05in /  1017.5hPa Calm     95.5% 0.00in /  0mm 0 W/m2
01:24 69.5 °F /  20.8 °C 68.3 °F /  20.2 °C 30.05in /  1017.5hPa Calm     96% 0.00in /  0mm 0 W/m2
01:29 69.5 °F /  20.8 °C 68.3 °F /  20.2 °C 30.05in /  1017.5hPa Calm     96% 0.00in /  0mm 0 W/m2
01:34 69.5 °F /  20.8 °C 68.3 °F /  20.2 °C 30.05in /  1017.5hPa Calm     96% 0.00in /  0mm 0 W/m2
01:39 69.5 °F /  20.8 °C 68.3 °F /  20.2 °C 30.05in /  1017.5hPa Calm     96% 0.00in /  0mm 0 W/m2
01:44 69.4 °F /  20.8 °C 68.2 °F /  20.1 °C 30.05in /  1017.5hPa Calm     96% 0.00in /  0mm 0 W/m2
01:49 69.4 °F /  20.8 °C 68.2 °F /  20.1 °C 30.05in /  1017.5hPa Calm     95.8% 0.00in /  0mm 0 W/m2
01:54 69.3 °F /  20.7 °C 68 °F /  20 °C 30.05in /  1017.5hPa Calm     95.5% 0.00in /  0mm 0 W/m2
01:59 69.3 °F /  20.7 °C 67.8 °F /  19.9 °C 30.04in /  1017.2hPa Calm     95.2% 0.00in /  0mm 0 W/m2
02:04 69.2 °F /  20.7 °C 67.8 °F /  19.9 °C 30.04in /  1017.2hPa Calm     95.3% 0.00in /  0mm 0 W/m2
02:09 69.1 °F /  20.6 °C 67.9 °F /  19.9 °C 30.05in /  1017.5hPa Calm     96% 0.00in /  0mm 0 W/m2
02:14 69 °F /  20.6 °C 67.8 °F /  19.9 °C 30.05in /  1017.5hPa Calm     96% 0.00in /  0mm 0 W/m2
02:19 69 °F /  20.6 °C 67.8 °F /  19.9 °C 30.05in /  1017.5hPa Calm     96% 0.00in /  0mm 0 W/m2
02:24 68.9 °F /  20.5 °C 67.7 °F /  19.8 °C 30.04in /  1017.2hPa Calm     96% 0.00in /  0mm 0 W/m2
02:29 68.8 °F /  20.4 °C 67.4 °F /  19.7 °C 30.04in /  1017.2hPa Calm     95.2% 0.00in /  0mm 0 W/m2
02:34 68.8 °F /  20.4 °C 67.6 °F /  19.8 °C 30.04in /  1017.2hPa Calm     95.9% 0.00in /  0mm 0 W/m2
02:39 68.8 °F /  20.4 °C 67.6 °F /  19.8 °C 30.04in /  1017.2hPa Calm     96% 0.00in /  0mm 0 W/m2
02:44 68.7 °F /  20.4 °C 67.6 °F /  19.8 °C 30.03in /  1016.8hPa Calm     96% 0.00in /  0mm 0 W/m2
02:49 68.7 °F /  20.4 °C 67.5 °F /  19.7 °C 30.03in /  1016.8hPa Calm     96% 0.00in /  0mm 0 W/m2
02:54 68.7 °F /  20.4 °C 67.5 °F /  19.7 °C 30.03in /  1016.8hPa Calm     96% 0.00in /  0mm 0 W/m2
02:59 68.7 °F /  20.4 °C 67.5 °F /  19.7 °C 30.04in /  1017.2hPa Calm     96% 0.00in /  0mm 0 W/m2
03:04 68.7 °F /  20.4 °C 67.5 °F /  19.7 °C 30.04in /  1017.2hPa Calm     96% 0.00in /  0mm 0 W/m2
03:09 68.8 °F /  20.4 °C 67.6 °F /  19.8 °C 30.04in /  1017.2hPa Calm     96% 0.00in /  0mm 0 W/m2
03:14 68.8 °F /  20.4 °C 67.6 °F /  19.8 °C 30.04in /  1017.2hPa Calm     96% 0.00in /  0mm 0 W/m2
03:19 68.8 °F /  20.4 °C 67.6 °F /  19.8 °C 30.04in /  1017.2hPa Calm     96% 0.00in /  0mm 0 W/m2
03:24 68.9 °F /  20.5 °C 67.7 °F /  19.8 °C 30.04in /  1017.2hPa Calm     96% 0.00in /  0mm 0 W/m2
03:29 68.9 °F /  20.5 °C 67.7 °F /  19.8 °C 30.04in /  1017.2hPa Calm     96% 0.00in /  0mm 0 W/m2
03:34 69 °F /  20.6 °C 67.8 °F /  19.9 °C 30.05in /  1017.5hPa Calm     96% 0.00in /  0mm 0 W/m2
03:39 69 °F /  20.6 °C 67.8 °F /  19.9 °C 30.05in /  1017.5hPa Calm     96% 0.00in /  0mm 0 W/m2
03:44 69 °F /  20.6 °C 67.8 °F /  19.9 °C 30.05in /  1017.5hPa Calm     96% 0.00in /  0mm 0 W/m2
03:49 69 °F /  20.6 °C 67.8 °F /  19.9 °C 30.05in /  1017.5hPa Calm     96% 0.00in /  0mm 0 W/m2
03:54 69 °F /  20.6 °C 67.8 °F /  19.9 °C 30.04in /  1017.2hPa Calm     96% 0.00in /  0mm 0 W/m2
03:59 69 °F /  20.6 °C 67.8 °F /  19.9 °C 30.04in /  1017.2hPa Calm     96% 0.00in /  0mm 0 W/m2
04:00 68.9 °F /  20.5 °C 67.7 °F /  19.8 °C 30.04in /  1017.2hPa Calm     96% 0.00in /  0mm 0 W/m2
04:09 68.9 °F /  20.5 °C 67.7 °F /  19.8 °C 30.04in /  1017.2hPa Calm     96% 0.00in /  0mm 0 W/m2
04:14 68.9 °F /  20.5 °C 67.7 °F /  19.8 °C 30.04in /  1017.2hPa Calm     96% 0.00in /  0mm 0 W/m2
04:19 69 °F /  20.6 °C 67.8 °F /  19.9 °C 30.04in /  1017.2hPa Calm     96% 0.00in /  0mm 0 W/m2
04:24 69 °F /  20.6 °C 67.9 °F /  19.9 °C 30.04in /  1017.2hPa Calm     96% 0.00in /  0mm 0 W/m2
04:29 69.1 °F /  20.6 °C 67.9 °F /  19.9 °C 30.04in /  1017.2hPa Calm     96% 0.00in /  0mm 0 W/m2
04:34 69.2 °F /  20.7 °C 68 °F /  20 °C 30.04in /  1017.2hPa Calm     96% 0.00in /  0mm 0 W/m2
04:39 69.2 °F /  20.7 °C 68 °F /  20 °C 30.04in /  1017.2hPa Calm     96% 0.00in /  0mm 0 W/m2
04:44 69.2 °F /  20.7 °C 68 °F /  20 °C 30.04in /  1017.2hPa Calm     96% 0.00in /  0mm 0 W/m2
04:49 69.3 °F /  20.7 °C 68.1 °F /  20.1 °C 30.05in /  1017.5hPa Calm     96% 0.00in /  0mm 0 W/m2
04:54 69.3 °F /  20.7 °C 68.1 °F /  20.1 °C 30.04in /  1017.2hPa Calm     96% 0.00in /  0mm 0 W/m2
04:59 69.3 °F /  20.7 °C 68.1 °F /  20.1 °C 30.04in /  1017.2hPa Calm     96% 0.00in /  0mm 0 W/m2
05:04 69.3 °F /  20.7 °C 68.1 °F /  20.1 °C 30.05in /  1017.5hPa Calm     96% 0.00in /  0mm 0 W/m2
05:09 69.4 °F /  20.8 °C 68.2 °F /  20.1 °C 30.05in /  1017.5hPa Calm     96% 0.00in /  0mm 0 W/m2
05:14 69.4 °F /  20.8 °C 68.2 °F /  20.1 °C 30.05in /  1017.5hPa Calm     96% 0.00in /  0mm 0 W/m2
05:19 69.4 °F /  20.8 °C 68.2 °F /  20.1 °C 30.05in /  1017.5hPa Calm     96% 0.00in /  0mm 0 W/m2
05:24 69.4 °F /  20.8 °C 68.2 °F /  20.1 °C 30.04in /  1017.2hPa Calm     96% 0.00in /  0mm 0 W/m2
05:29 69.3 °F /  20.7 °C 68.1 °F /  20.1 °C 30.04in /  1017.2hPa Calm     96% 0.00in /  0mm 0 W/m2
05:34 69.2 °F /  20.7 °C 68.1 °F /  20.1 °C 30.05in /  1017.5hPa Calm     96% 0.00in /  0mm 0 W/m2
05:39 69.2 °F /  20.7 °C 68 °F /  20 °C 30.05in /  1017.5hPa Calm     96% 0.00in /  0mm 0 W/m2
05:44 69.1 °F /  20.6 °C 67.9 °F /  19.9 °C 30.05in /  1017.5hPa Calm     96% 0.00in /  0mm 0 W/m2
05:49 69.1 °F /  20.6 °C 67.9 °F /  19.9 °C 30.06in /  1017.8hPa Calm     96% 0.00in /  0mm 0 W/m2
05:54 69.1 °F /  20.6 °C 67.9 °F /  19.9 °C 30.06in /  1017.8hPa Calm     96% 0.00in /  0mm 0 W/m2
05:59 69.1 °F /  20.6 °C 67.9 °F /  19.9 °C 30.06in /  1017.8hPa Calm     96% 0.00in /  0mm 0 W/m2
06:04 69 °F /  20.6 °C 67.8 °F /  19.9 °C 30.06in /  1017.8hPa Calm     96% 0.00in /  0mm 0 W/m2
06:09 69 °F /  20.6 °C 67.8 °F /  19.9 °C 30.06in /  1017.8hPa Calm     96% 0.00in /  0mm 0 W/m2
06:14 69 °F /  20.6 °C 67.8 °F /  19.9 °C 30.07in /  1018.2hPa Calm     96% 0.00in /  0mm 0 W/m2
06:19 69 °F /  20.6 °C 67.8 °F /  19.9 °C 30.07in /  1018.2hPa Calm     96% 0.00in /  0mm 0 W/m2
06:24 68.9 °F /  20.5 °C 67.7 °F /  19.8 °C 30.07in /  1018.2hPa Calm     96% 0.00in /  0mm 0 W/m2
06:29 68.9 °F /  20.5 °C 67.7 °F /  19.8 °C 30.07in /  1018.2hPa Calm     96% 0.00in /  0mm 0 W/m2
06:34 69 °F /  20.6 °C 67.8 °F /  19.9 °C 30.07in /  1018.2hPa Calm     96% 0.00in /  0mm 5 W/m2
06:39 69 °F /  20.6 °C 67.8 °F /  19.9 °C 30.07in /  1018.2hPa Calm     96% 0.00in /  0mm 7 W/m2
06:44 69 °F /  20.6 °C 67.8 °F /  19.9 °C 30.07in /  1018.2hPa Calm     96% 0.00in /  0mm 7 W/m2
06:49 69 °F /  20.6 °C 67.8 °F /  19.9 °C 30.07in /  1018.2hPa Calm     96% 0.00in /  0mm 7 W/m2
06:54 69.1 °F /  20.6 °C 67.9 °F /  19.9 °C 30.07in /  1018.2hPa Calm     96% 0.00in /  0mm 9 W/m2
06:59 69.1 °F /  20.6 °C 67.9 °F /  19.9 °C 30.07in /  1018.2hPa Calm     96% 0.00in /  0mm 7 W/m2
07:04 69.1 °F /  20.6 °C 67.9 °F /  19.9 °C 30.07in /  1018.2hPa Calm     96% 0.00in /  0mm 7 W/m2
07:09 69.2 °F /  20.7 °C 68 °F /  20 °C 30.08in /  1018.5hPa Calm     96% 0.00in /  0mm 9 W/m2
07:14 69.2 °F /  20.7 °C 68 °F /  20 °C 30.08in /  1018.5hPa Calm     96% 0.00in /  0mm 11 W/m2
07:19 69.2 °F /  20.7 °C 68 °F /  20 °C 30.08in /  1018.5hPa Calm     96% 0.00in /  0mm 12 W/m2
07:24 69.2 °F /  20.7 °C 68 °F /  20 °C 30.08in /  1018.5hPa Calm     96% 0.00in /  0mm 14 W/m2
07:29 69.2 °F /  20.7 °C 68 °F /  20 °C 30.08in /  1018.5hPa Calm     96% 0.00in /  0mm 19 W/m2
07:34 69.3 °F /  20.7 °C 68.1 °F /  20.1 °C 30.08in /  1018.5hPa Calm     96% 0.00in /  0mm 23 W/m2
07:39 69.3 °F /  20.7 °C 68.1 °F /  20.1 °C 30.08in /  1018.5hPa Calm     96% 0.00in /  0mm 23 W/m2
07:44 69.4 °F /  20.8 °C 68.2 °F /  20.1 °C 30.08in /  1018.5hPa Calm     96% 0.00in /  0mm 21 W/m2
07:49 69.4 °F /  20.8 °C 68.2 °F /  20.1 °C 30.08in /  1018.5hPa Calm     96% 0.00in /  0mm 21 W/m2
07:54 69.5 °F /  20.8 °C 68.3 °F /  20.2 °C 30.08in /  1018.5hPa Calm     96% 0.00in /  0mm 33 W/m2
07:59 69.6 °F /  20.9 °C 68.4 °F /  20.2 °C 30.08in /  1018.5hPa Calm     96% 0.00in /  0mm 40 W/m2
08:09 69.8 °F /  21 °C 68.9 °F /  20.5 °C 30.08in /  1018.5hPa Calm     97% 0.00in /  0mm 60 W/m2
08:14 69.9 °F /  21.1 °C 69 °F /  20.6 °C 30.08in /  1018.5hPa WSW 0.1mph /  0.2km/h 1mph /  1.6km/h 97% 0.00in /  0mm 69 W/m2
08:19 70 °F /  21.1 °C 69 °F /  20.6 °C 30.08in /  1018.5hPa Calm   1mph /  1.6km/h 96.6% 0.00in /  0mm 90 W/m2
08:24 70.1 °F /  21.2 °C 68.9 °F /  20.5 °C 30.08in /  1018.5hPa Calm   1mph /  1.6km/h 96% 0.00in /  0mm 91 W/m2
08:29 70.2 °F /  21.2 °C 69 °F /  20.6 °C 30.08in /  1018.5hPa NNW 0.6mph /  1km/h 7mph /  11.3km/h 96% 0.00in /  0mm 98 W/m2
08:34 70.2 °F /  21.2 °C 69 °F /  20.6 °C 30.08in /  1018.5hPa NW 0.2mph /  0.3km/h 7mph /  11.3km/h 96% 0.00in /  0mm 98 W/m2
08:39 70.2 °F /  21.2 °C 69 °F /  20.6 °C 30.08in /  1018.5hPa NW 0.2mph /  0.3km/h 6mph /  9.7km/h 96% 0.00in /  0mm 84 W/m2
08:40 70.2 °F /  21.2 °C 69 °F /  20.6 °C 30.08in /  1018.5hPa Calm   6mph /  9.7km/h 96% 0.00in /  0mm 63 W/m2
09:30 70.1 °F /  21.2 °C 68.9 °F /  20.5 °C 30.08in /  1018.5hPa Calm   4mph /  6.4km/h 96% 0.01in /  0.25mm 52 W/m2
10:00 69.8 °F /  21 °C 68.6 °F /  20.3 °C 30.09in /  1018.8hPa Calm   3mph /  4.8km/h 96% 0.01in /  0.25mm 95 W/m2
10:30 70.7 °F /  21.5 °C 69.5 °F /  20.8 °C 30.08in /  1018.5hPa Calm   3mph /  4.8km/h 96% 0.01in /  0.25mm 127 W/m2
11:00 70.6 °F /  21.4 °C 69.4 °F /  20.8 °C 30.09in /  1018.8hPa Calm   4mph /  6.4km/h 96% 0.00in /  0mm 125 W/m2
11:30 71.2 °F /  21.8 °C 70 °F /  21.1 °C 30.08in /  1018.5hPa Calm   4mph /  6.4km/h 96% 0.00in /  0mm 143 W/m2
12:04 72.7 °F /  22.6 °C 71.5 °F /  21.9 °C 30.08in /  1018.5hPa NE 0.4mph /  0.6km/h 4mph /  6.4km/h 96% 0.00in /  0mm 272 W/m2
12:09 72.6 °F /  22.6 °C 71.4 °F /  21.9 °C 30.08in /  1018.5hPa NE 0.1mph /  0.2km/h 4mph /  6.4km/h 96% 0.00in /  0mm 229 W/m2
12:14 72.4 °F /  22.4 °C 70.9 °F /  21.6 °C 30.08in /  1018.5hPa NE 0.1mph /  0.2km/h 4mph /  6.4km/h 95.1% 0.00in /  0mm 171 W/m2
12:19 72.4 °F /  22.4 °C 70.9 °F /  21.6 °C 30.08in /  1018.5hPa Calm   4mph /  6.4km/h 95% 0.00in /  0mm 197 W/m2
12:24 72.7 °F /  22.6 °C 71.2 °F /  21.8 °C 30.08in /  1018.5hPa Calm   4mph /  6.4km/h 95% 0.00in /  0mm 216 W/m2
12:29 72.8 °F /  22.7 °C 71.3 °F /  21.8 °C 30.08in /  1018.5hPa Calm   4mph /  6.4km/h 95% 0.00in /  0mm 211 W/m2
12:34 73 °F /  22.8 °C 71.5 °F /  21.9 °C 30.08in /  1018.5hPa Calm   4mph /  6.4km/h 95% 0.00in /  0mm 234 W/m2
12:39 73.3 °F /  22.9 °C 71.7 °F /  22.1 °C 30.08in /  1018.5hPa Calm     94.8% 0.00in /  0mm 234 W/m2
12:44 73.5 °F /  23.1 °C 71.6 °F /  22 °C 30.08in /  1018.5hPa Calm     94% 0.00in /  0mm 186 W/m2
12:49 73.7 °F /  23.2 °C 71.8 °F /  22.1 °C 30.08in /  1018.5hPa Calm     94% 0.00in /  0mm 148 W/m2
12:54 73.7 °F /  23.2 °C 71.9 °F /  22.2 °C 30.08in /  1018.5hPa Calm     94% 0.00in /  0mm 213 W/m2
12:59 73.9 °F /  23.3 °C 71.8 °F /  22.1 °C 30.08in /  1018.5hPa Calm     93.2% 0.00in /  0mm 213 W/m2
13:04 74.2 °F /  23.4 °C 72.3 °F /  22.4 °C 30.08in /  1018.5hPa Calm     93.8% 0.00in /  0mm 255 W/m2
13:09 74.4 °F /  23.6 °C 72.4 °F /  22.4 °C 30.07in /  1018.2hPa Calm   1mph /  1.6km/h 93.6% 0.00in /  0mm 255 W/m2
13:14 74.5 °F /  23.6 °C 72.3 °F /  22.4 °C 30.07in /  1018.2hPa Calm   1mph /  1.6km/h 92.9% 0.00in /  0mm 287 W/m2
13:19 74.5 °F /  23.6 °C 72 °F /  22.2 °C 30.07in /  1018.2hPa Calm   1mph /  1.6km/h 92% 0.00in /  0mm 330 W/m2
13:24 74.8 °F /  23.8 °C 72.3 °F /  22.4 °C 30.07in /  1018.2hPa Calm   1mph /  1.6km/h 92% 0.00in /  0mm 504 W/m2
13:29 75.2 °F /  24 °C 72.8 °F /  22.7 °C 30.07in /  1018.2hPa NNE 0.3mph /  0.5km/h 3mph /  4.8km/h 92.2% 0.00in /  0mm 524 W/m2
13:34 75.6 °F /  24.2 °C 72.9 °F /  22.7 °C 30.06in /  1017.8hPa North 0.2mph /  0.3km/h 3mph /  4.8km/h 91.4% 0.00in /  0mm 524 W/m2
13:39 76 °F /  24.4 °C 73 °F /  22.8 °C 30.06in /  1017.8hPa NNW 0.2mph /  0.3km/h 4mph /  6.4km/h 90.4% 0.00in /  0mm 359 W/m2
13:44 76.4 °F /  24.7 °C 73.1 °F /  22.8 °C 30.06in /  1017.8hPa NNW 0.1mph /  0.2km/h 4mph /  6.4km/h 89.6% 0.00in /  0mm 362 W/m2
13:49 76.8 °F /  24.9 °C 73.3 °F /  22.9 °C 30.06in /  1017.8hPa Calm   4mph /  6.4km/h 89% 0.00in /  0mm 299 W/m2
13:54 77 °F /  25 °C 73 °F /  22.8 °C 30.06in /  1017.8hPa Calm   4mph /  6.4km/h 87.6% 0.00in /  0mm 299 W/m2
13:59 77.1 °F /  25.1 °C 72.9 °F /  22.7 °C 30.06in /  1017.8hPa NNE 0.1mph /  0.2km/h 4mph /  6.4km/h 87% 0.00in /  0mm 301 W/m2
14:04 77.2 °F /  25.1 °C 72.8 °F /  22.7 °C 30.06in /  1017.8hPa Calm   4mph /  6.4km/h 86.5% 0.00in /  0mm 301 W/m2
14:09 77.2 °F /  25.1 °C 72.7 °F /  22.6 °C 30.06in /  1017.8hPa Calm   1mph /  1.6km/h 86% 0.00in /  0mm 269 W/m2
14:14 77.3 °F /  25.2 °C 72.8 °F /  22.7 °C 30.05in /  1017.5hPa NNE 0.1mph /  0.2km/h 2mph /  3.2km/h 86% 0.00in /  0mm 278 W/m2
14:19 77.5 °F /  25.3 °C 73.1 °F /  22.8 °C 30.05in /  1017.5hPa Calm   2mph /  3.2km/h 86.2% 0.00in /  0mm 244 W/m2
14:24 77.7 °F /  25.4 °C 73.1 °F /  22.8 °C 30.05in /  1017.5hPa Calm   2mph /  3.2km/h 85.9% 0.00in /  0mm 236 W/m2
14:29 77.7 °F /  25.4 °C 73 °F /  22.8 °C 30.05in /  1017.5hPa North 0.2mph /  0.3km/h 4mph /  6.4km/h 85.6% 0.00in /  0mm 283 W/m2
14:34 77.7 °F /  25.4 °C 73.2 °F /  22.9 °C 30.05in /  1017.5hPa NW 0.4mph /  0.6km/h 5mph /  8km/h 86% 0.00in /  0mm 413 W/m2
14:39 77.7 °F /  25.4 °C 72.9 °F /  22.7 °C 30.05in /  1017.5hPa NW 0.2mph /  0.3km/h 5mph /  8km/h 85% 0.00in /  0mm 364 W/m2
14:44 77.6 °F /  25.3 °C 72.7 °F /  22.6 °C 30.05in /  1017.5hPa NW 0.1mph /  0.2km/h 5mph /  8km/h 84.8% 0.00in /  0mm 214 W/m2
14:49 77.6 °F /  25.3 °C 72.7 °F /  22.6 °C 30.05in /  1017.5hPa NNW 0.4mph /  0.6km/h 6mph /  9.7km/h 85% 0.00in /  0mm 174 W/m2
14:54 77.4 °F /  25.2 °C 72.5 °F /  22.5 °C 30.05in /  1017.5hPa NE 0.4mph /  0.6km/h 6mph /  9.7km/h 84.8% 0.00in /  0mm 134 W/m2
14:59 77.1 °F /  25.1 °C 72.2 °F /  22.3 °C 30.05in /  1017.5hPa NE 0.1mph /  0.2km/h 6mph /  9.7km/h 84.9% 0.00in /  0mm 134 W/m2
15:04 76.9 °F /  24.9 °C 72.1 °F /  22.3 °C 30.05in /  1017.5hPa NW 0.3mph /  0.5km/h 6mph /  9.7km/h 85.2% 0.00in /  0mm 199 W/m2
15:09 76.7 °F /  24.8 °C 72.2 °F /  22.3 °C 30.05in /  1017.5hPa NNW 0.6mph /  1km/h 6mph /  9.7km/h 86% 0.00in /  0mm 264 W/m2
15:14 76.7 °F /  24.8 °C 72.2 °F /  22.3 °C 30.05in /  1017.5hPa NNW 0.1mph /  0.2km/h 6mph /  9.7km/h 86% 0.00in /  0mm 292 W/m2
15:19 76.7 °F /  24.8 °C 72.3 °F /  22.4 °C 30.05in /  1017.5hPa North 0.2mph /  0.3km/h 6mph /  9.7km/h 86.3% 0.00in /  0mm 288 W/m2
15:24 76.7 °F /  24.8 °C 72.2 °F /  22.3 °C 30.04in /  1017.2hPa NW 0.2mph /  0.3km/h 6mph /  9.7km/h 86% 0.00in /  0mm 246 W/m2
15:29 76.6 °F /  24.8 °C 72 °F /  22.2 °C 30.04in /  1017.2hPa NW 1.4mph /  2.3km/h 9mph /  14.5km/h 85.8% 0.00in /  0mm 218 W/m2
15:34 76.4 °F /  24.7 °C 71.9 °F /  22.2 °C 30.04in /  1017.2hPa NW 0.6mph /  1km/h 9mph /  14.5km/h 86% 0.00in /  0mm 199 W/m2
15:39 76.2 °F /  24.6 °C 71.8 °F /  22.1 °C 30.04in /  1017.2hPa Calm   5mph /  8km/h 86% 0.00in /  0mm 160 W/m2
15:44 76.1 °F /  24.5 °C 71.6 °F /  22 °C 30.04in /  1017.2hPa NW 0.3mph /  0.5km/h 6mph /  9.7km/h 86% 0.00in /  0mm 209 W/m2
15:49 75.9 °F /  24.4 °C 71.5 °F /  21.9 °C 30.04in /  1017.2hPa ENE 0.2mph /  0.3km/h 9mph /  14.5km/h 86.2% 0.00in /  0mm 214 W/m2
15:54 75.7 °F /  24.3 °C 71.2 °F /  21.8 °C 30.04in /  1017.2hPa NNE 0.1mph /  0.2km/h 9mph /  14.5km/h 86% 0.00in /  0mm 178 W/m2
15:59 75.6 °F /  24.2 °C 71.1 °F /  21.7 °C 30.04in /  1017.2hPa NNW 1.1mph /  1.8km/h 10mph /  16.1km/h 86% 0.00in /  0mm 123 W/m2
16:04 75.4 °F /  24.1 °C 70.9 °F /  21.6 °C 30.05in /  1017.5hPa Calm     86% 0.00in /  0mm 81 W/m2
16:09 75.3 °F /  24.1 °C 70.8 °F /  21.6 °C 30.05in /  1017.5hPa NNW 0.5mph /  0.8km/h 7mph /  11.3km/h 86% 0.00in /  0mm 88 W/m2
16:14 75.1 °F /  23.9 °C 70.7 °F /  21.5 °C 30.04in /  1017.2hPa NNE 0.4mph /  0.6km/h 7mph /  11.3km/h 86% 0.00in /  0mm 97 W/m2
16:19 74.9 °F /  23.8 °C 70.5 °F /  21.4 °C 30.04in /  1017.2hPa NNW 0.6mph /  1km/h 7mph /  11.3km/h 86% 0.00in /  0mm 102 W/m2
16:24 74.7 °F /  23.7 °C 70.2 °F /  21.2 °C 30.04in /  1017.2hPa NW 0.8mph /  1.3km/h 11mph /  17.7km/h 86% 0.00in /  0mm 86 W/m2
16:29 74.5 °F /  23.6 °C 70.1 °F /  21.2 °C 30.05in /  1017.5hPa NNW 0.1mph /  0.2km/h 11mph /  17.7km/h 86% 0.00in /  0mm 74 W/m2
16:34 74.3 °F /  23.5 °C 70 °F /  21.1 °C 30.05in /  1017.5hPa East 0.2mph /  0.3km/h 11mph /  17.7km/h 86.6% 0.00in /  0mm 63 W/m2
16:39 74.1 °F /  23.4 °C 70 °F /  21.1 °C 30.05in /  1017.5hPa North 0.8mph /  1.3km/h 7mph /  11.3km/h 87% 0.00in /  0mm 33 W/m2
16:44 74 °F /  23.3 °C 70 °F /  21.1 °C 30.05in /  1017.5hPa NNE 0.6mph /  1km/h 7mph /  11.3km/h 87.4% 0.00in /  0mm 25 W/m2
16:49 73.9 °F /  23.3 °C 70.1 °F /  21.2 °C 30.05in /  1017.5hPa NNW 0.7mph /  1.1km/h 7mph /  11.3km/h 88% 0.00in /  0mm 23 W/m2
16:54 73.7 °F /  23.2 °C 69.9 °F /  21.1 °C 30.05in /  1017.5hPa NNW 0.6mph /  1km/h 7mph /  11.3km/h 88% 0.00in /  0mm 18 W/m2
16:59 73.5 °F /  23.1 °C 70 °F /  21.1 °C 30.05in /  1017.5hPa NW 0.5mph /  0.8km/h 7mph /  11.3km/h 88.8% 0.00in /  0mm 12 W/m2
17:04 73.4 °F /  23 °C 70.1 °F /  21.2 °C 30.05in /  1017.5hPa Calm   7mph /  11.3km/h 89.3% 0.00in /  0mm 9 W/m2
17:09 73.3 °F /  22.9 °C 70 °F /  21.1 °C 30.05in /  1017.5hPa NNW 0.2mph /  0.3km/h 6mph /  9.7km/h 89.6% 0.01in /  0.25mm 9 W/m2
17:14 73 °F /  22.8 °C 69.9 °F /  21.1 °C 30.05in /  1017.5hPa Calm   6mph /  9.7km/h 90% 0.01in /  0.25mm 7 W/m2
17:19 72.9 °F /  22.7 °C 70 °F /  21.1 °C 30.05in /  1017.5hPa Calm   6mph /  9.7km/h 90.7% 0.01in /  0.25mm 7 W/m2
17:24 72.8 °F /  22.7 °C 70 °F /  21.1 °C 30.05in /  1017.5hPa Calm   6mph /  9.7km/h 91% 0.03in /  0.76mm 11 W/m2
17:29 72.8 °F /  22.7 °C 70.2 °F /  21.2 °C 30.05in /  1017.5hPa Calm   6mph /  9.7km/h 91.7% 0.05in /  1.27mm 25 W/m2
17:34 72.7 °F /  22.6 °C 70.2 °F /  21.2 °C 30.05in /  1017.5hPa NE 0.2mph /  0.3km/h 6mph /  9.7km/h 92% 0.07in /  1.78mm 28 W/m2
17:39 72.5 °F /  22.5 °C 70.1 °F /  21.2 °C 30.05in /  1017.5hPa ENE 0.1mph /  0.2km/h 3mph /  4.8km/h 92% 0.09in /  2.29mm 28 W/m2
17:44 72.3 °F /  22.4 °C 69.9 °F /  21.1 °C 30.05in /  1017.5hPa East 0.1mph /  0.2km/h 3mph /  4.8km/h 92% 0.09in /  2.29mm 19 W/m2
17:49 72.1 °F /  22.3 °C 69.7 °F /  20.9 °C 30.06in /  1017.8hPa East 0.4mph /  0.6km/h 4mph /  6.4km/h 92% 0.10in /  2.54mm 14 W/m2
17:54 71.8 °F /  22.1 °C 69.4 °F /  20.8 °C 30.06in /  1017.8hPa Calm   4mph /  6.4km/h 92% 0.10in /  2.54mm 11 W/m2
17:59 71.7 °F /  22.1 °C 69.4 °F /  20.8 °C 30.06in /  1017.8hPa Calm   4mph /  6.4km/h 92.7% 0.10in /  2.54mm 9 W/m2
18:04 71.5 °F /  21.9 °C 69.4 °F /  20.8 °C 30.06in /  1017.8hPa Calm   4mph /  6.4km/h 93% 0.11in /  2.79mm 7 W/m2
18:09 71.3 °F /  21.8 °C 69.2 °F /  20.7 °C 30.05in /  1017.5hPa Calm     93% 0.12in /  3.05mm 7 W/m2
18:14 71.2 °F /  21.8 °C 69.1 °F /  20.6 °C 30.06in /  1017.8hPa Calm     93% 0.13in /  3.3mm 7 W/m2
18:19 71.2 °F /  21.8 °C 69 °F /  20.6 °C 30.05in /  1017.5hPa Calm     93% 0.14in /  3.56mm 7 W/m2
18:24 71 °F /  21.7 °C 69.1 °F /  20.6 °C 30.05in /  1017.5hPa Calm     93.5% 0.15in /  3.81mm 11 W/m2
18:29 71 °F /  21.7 °C 69.2 °F /  20.7 °C 30.05in /  1017.5hPa Calm     94% 0.15in /  3.81mm 9 W/m2
18:34 70.9 °F /  21.6 °C 69.1 °F /  20.6 °C 30.05in /  1017.5hPa Calm     94% 0.15in /  3.81mm 7 W/m2
18:39 70.8 °F /  21.6 °C 69 °F /  20.6 °C 30.05in /  1017.5hPa Calm     94% 0.11in /  2.79mm 5 W/m2
18:44 70.6 °F /  21.4 °C 68.8 °F /  20.4 °C 30.05in /  1017.5hPa Calm     94% 0.11in /  2.79mm 0 W/m2
18:49 70.5 °F /  21.4 °C 68.7 °F /  20.4 °C 30.05in /  1017.5hPa ENE 0.6mph /  1km/h 6mph /  9.7km/h 94% 0.11in /  2.79mm 0 W/m2
18:54 70.4 °F /  21.3 °C 68.6 °F /  20.3 °C 30.05in /  1017.5hPa NE 0.5mph /  0.8km/h 6mph /  9.7km/h 94% 0.11in /  2.79mm 0 W/m2
18:59 70.3 °F /  21.3 °C 68.5 °F /  20.3 °C 30.05in /  1017.5hPa Calm   6mph /  9.7km/h 94% 0.11in /  2.79mm 0 W/m2
19:04 70.2 °F /  21.2 °C 68.5 °F /  20.3 °C 30.05in /  1017.5hPa Calm   6mph /  9.7km/h 94.4% 0.11in /  2.79mm 0 W/m2
19:08 70.2 °F /  21.2 °C 68.7 °F /  20.4 °C 30.05in /  1017.5hPa NE 0.5mph /  0.8km/h 3mph /  4.8km/h 95% 0.07in /  1.78mm 0 W/m2
Hartford County Weather
Compliments of Weather Underground - 2 mb